createdAt,value
2022-12-25T00:01:25.852Z,87.67
2022-12-25T00:03:52.911Z,87.98
2022-12-25T00:06:20.073Z,87.85
2022-12-25T00:08:46.780Z,88.91
2022-12-25T00:11:19.316Z,88.49
2022-12-25T00:13:46.477Z,88.88
2022-12-25T00:16:17.779Z,89.08
2022-12-25T00:18:45.063Z,88.62
2022-12-25T00:21:12.121Z,88.27
2022-12-25T00:23:38.928Z,88.06
2022-12-25T00:26:14.715Z,86.94
2022-12-25T00:28:41.496Z,86.28
2022-12-25T00:31:14.915Z,85.29
2022-12-25T00:33:44.200Z,84.83
2022-12-25T00:36:12.744Z,84.18
2022-12-25T00:38:40.314Z,84.28
2022-12-25T00:41:09.644Z,83.71
2022-12-25T00:43:36.674Z,82.97
2022-12-25T00:46:06.021Z,82.97
2022-12-25T00:48:33.789Z,82.82
2022-12-25T00:51:05.858Z,83.18
2022-12-25T00:53:32.988Z,83.36
2022-12-25T00:56:03.349Z,83.09
2022-12-25T00:58:32.113Z,82.98
2022-12-25T01:00:58.924Z,83.46
2022-12-25T01:03:27.021Z,82.99
2022-12-25T01:05:57.076Z,83.31
2022-12-25T01:08:24.436Z,83.01
2022-12-25T01:11:02.417Z,83.65
2022-12-25T01:13:30.323Z,84.15
2022-12-25T01:15:57.315Z,84.39
2022-12-25T01:18:25.344Z,85.54
2022-12-25T01:20:52.028Z,83.30
2022-12-25T01:23:18.803Z,81.74
2022-12-25T01:25:45.721Z,81.38
2022-12-25T01:28:12.725Z,83.42
2022-12-25T01:30:39.721Z,83.87
2022-12-25T01:33:06.470Z,83.20
2022-12-25T01:35:33.303Z,84.90
2022-12-25T01:38:00.123Z,83.40
2022-12-25T01:40:26.984Z,83.58
2022-12-25T01:42:53.658Z,82.36
2022-12-25T01:45:40.733Z,82.18
2022-12-25T01:48:13.101Z,82.04
2022-12-25T01:50:42.712Z,82.08
2022-12-25T01:53:09.748Z,82.00
2022-12-25T01:55:38.145Z,81.59
2022-12-25T01:58:05.374Z,81.11
2022-12-25T02:00:32.209Z,81.32
2022-12-25T02:02:59.325Z,80.99
2022-12-25T02:05:30.146Z,80.80
2022-12-25T02:07:59.565Z,81.38
2022-12-25T02:10:26.373Z,81.52
2022-12-25T02:12:53.465Z,81.48
2022-12-25T02:15:22.922Z,81.13
2022-12-25T02:18:12.475Z,81.74
2022-12-25T02:20:44.995Z,81.15
2022-12-25T02:23:29.682Z,79.74
2022-12-25T02:26:16.412Z,79.45
2022-12-25T02:28:45.817Z,80.45
2022-12-25T02:31:36.610Z,80.71
2022-12-25T02:34:17.500Z,80.88
2022-12-25T02:37:04.410Z,81.96
2022-12-25T02:39:50.487Z,82.30
2022-12-25T02:42:43.625Z,82.33
2022-12-25T02:45:10.579Z,82.52
2022-12-25T02:47:38.282Z,82.89
2022-12-25T02:50:06.486Z,82.64
2022-12-25T02:52:33.282Z,81.63
2022-12-25T02:55:09.796Z,81.33
2022-12-25T02:57:42.201Z,82.05
2022-12-25T03:00:09.739Z,82.30
2022-12-25T03:02:38.940Z,82.43
2022-12-25T03:05:10.807Z,82.48
2022-12-25T03:07:40.803Z,82.66
2022-12-25T03:10:09.709Z,82.18
2022-12-25T03:12:50.477Z,81.99
2022-12-25T03:15:19.204Z,81.88
2022-12-25T03:17:45.834Z,82.82
2022-12-25T03:20:12.693Z,82.31
2022-12-25T03:22:42.810Z,84.41
2022-12-25T03:25:09.647Z,84.32
2022-12-25T03:27:38.106Z,83.99
2022-12-25T03:30:05.420Z,83.98
2022-12-25T03:33:18.055Z,83.52
2022-12-25T03:36:03.010Z,84.21
2022-12-25T03:38:38.132Z,83.68
2022-12-25T03:41:23.072Z,82.92
2022-12-25T03:44:16.770Z,83.11
2022-12-25T03:47:00.779Z,83.54
2022-12-25T03:49:37.720Z,83.50
2022-12-25T03:52:08.182Z,83.51
2022-12-25T03:54:39.474Z,83.00
2022-12-25T03:57:06.686Z,82.90
2022-12-25T03:59:33.274Z,83.66
2022-12-25T04:02:00.349Z,83.49
2022-12-25T04:04:27.050Z,82.87
2022-12-25T04:06:53.824Z,82.70
2022-12-25T04:09:20.803Z,82.67
2022-12-25T04:11:47.441Z,83.80
2022-12-25T04:14:14.075Z,83.16
2022-12-25T04:16:41.139Z,83.16
2022-12-25T04:19:09.551Z,83.45
2022-12-25T04:21:36.260Z,83.38
2022-12-25T04:24:02.892Z,83.41
2022-12-25T04:26:29.635Z,83.66
2022-12-25T04:28:56.253Z,83.83
2022-12-25T04:31:23.128Z,84.36
2022-12-25T04:33:49.806Z,84.18
2022-12-25T04:36:16.567Z,84.67
2022-12-25T04:38:43.562Z,84.21
2022-12-25T04:41:13.068Z,84.71
2022-12-25T04:43:39.714Z,84.33
2022-12-25T04:46:06.922Z,84.54
2022-12-25T04:48:35.549Z,84.73
2022-12-25T04:51:17.315Z,83.98
2022-12-25T04:53:45.267Z,84.41
2022-12-25T04:56:12.328Z,84.38
2022-12-25T04:58:39.040Z,83.91
2022-12-25T05:01:05.733Z,84.29
2022-12-25T05:03:33.102Z,84.20
2022-12-25T05:06:00.049Z,84.05
2022-12-25T05:08:29.379Z,83.67
2022-12-25T05:10:56.300Z,83.76
2022-12-25T05:13:23.392Z,83.82
2022-12-25T05:15:50.923Z,83.84
2022-12-25T05:18:17.751Z,83.98
2022-12-25T05:20:52.513Z,84.00
2022-12-25T05:23:19.387Z,83.79
2022-12-25T05:25:46.072Z,83.69
2022-12-25T05:28:12.857Z,84.09
2022-12-25T05:30:39.557Z,83.71
2022-12-25T05:33:06.708Z,83.72
2022-12-25T05:35:33.393Z,83.89
2022-12-25T05:38:00.172Z,84.15
2022-12-25T05:40:26.779Z,83.61
2022-12-25T05:42:53.520Z,83.76
2022-12-25T05:45:20.113Z,83.72
2022-12-25T05:47:46.852Z,84.04
2022-12-25T05:50:13.502Z,84.02
2022-12-25T05:52:40.180Z,84.10
2022-12-25T05:55:07.157Z,83.64
2022-12-25T05:57:33.940Z,83.70
2022-12-25T06:00:00.593Z,83.98
2022-12-25T06:02:27.507Z,83.71
2022-12-25T06:04:54.441Z,83.65
2022-12-25T06:07:21.191Z,83.60
2022-12-25T06:09:47.847Z,83.16
2022-12-25T06:12:14.596Z,83.54
2022-12-25T06:14:41.183Z,83.33
2022-12-25T06:17:07.979Z,82.96
2022-12-25T06:19:34.944Z,83.42
2022-12-25T06:22:01.701Z,83.46
2022-12-25T06:24:28.352Z,83.58
2022-12-25T06:26:55.071Z,83.60
2022-12-25T06:29:21.697Z,83.10
2022-12-25T06:31:48.481Z,82.88
2022-12-25T06:34:15.240Z,83.10
2022-12-25T06:36:42.243Z,82.95
2022-12-25T06:39:09.612Z,82.76
2022-12-25T06:41:36.348Z,82.38
2022-12-25T06:44:02.987Z,83.11
2022-12-25T06:46:30.533Z,82.99
2022-12-25T06:48:58.518Z,83.41
2022-12-25T06:51:28.479Z,83.21
2022-12-25T06:53:55.803Z,82.86
2022-12-25T06:56:26.205Z,83.56
2022-12-25T06:58:55.930Z,82.66
2022-12-25T07:01:42.586Z,83.35
2022-12-25T07:04:28.134Z,83.32
2022-12-25T07:06:54.909Z,83.50
2022-12-25T07:09:21.486Z,83.17
2022-12-25T07:11:48.141Z,83.02
2022-12-25T07:14:24.448Z,82.81
2022-12-25T07:16:51.835Z,83.21
2022-12-25T07:19:18.531Z,82.78
2022-12-25T07:21:45.445Z,82.72
2022-12-25T07:24:12.035Z,83.11
2022-12-25T07:26:38.877Z,82.72
2022-12-25T07:29:05.582Z,82.85
2022-12-25T07:31:32.334Z,82.88
2022-12-25T07:33:58.974Z,82.79
2022-12-25T07:36:25.854Z,83.11
2022-12-25T07:38:52.464Z,82.96
2022-12-25T07:41:19.304Z,83.39
2022-12-25T07:43:49.945Z,84.84
2022-12-25T07:46:16.877Z,84.48
2022-12-25T07:48:43.507Z,84.62
2022-12-25T07:51:12.722Z,83.69
2022-12-25T07:53:40.273Z,84.06
2022-12-25T07:56:11.447Z,83.95
2022-12-25T07:58:38.850Z,83.73
2022-12-25T08:01:08.039Z,83.69
2022-12-25T08:03:35.877Z,83.86
2022-12-25T08:06:05.348Z,83.95
2022-12-25T08:08:32.433Z,84.38
2022-12-25T08:10:59.260Z,84.28
2022-12-25T08:13:26.373Z,84.21
2022-12-25T08:16:04.613Z,84.59
2022-12-25T08:18:32.102Z,84.93
2022-12-25T08:21:06.835Z,84.57
2022-12-25T08:23:35.502Z,85.27
2022-12-25T08:26:05.524Z,84.96
2022-12-25T08:28:33.894Z,85.08
2022-12-25T08:31:06.571Z,84.93
2022-12-25T08:33:33.425Z,84.77
2022-12-25T08:36:05.219Z,85.14
2022-12-25T08:38:31.956Z,84.77
2022-12-25T08:40:58.558Z,85.29
2022-12-25T08:43:25.221Z,85.30
2022-12-25T08:45:52.009Z,86.25
2022-12-25T08:48:18.884Z,86.20
2022-12-25T08:50:50.650Z,86.79
2022-12-25T08:53:17.824Z,86.78
2022-12-25T08:55:44.876Z,86.99
2022-12-25T08:58:12.361Z,87.46
2022-12-25T09:00:39.071Z,89.21
2022-12-25T09:03:05.839Z,89.19
2022-12-25T09:05:37.789Z,88.75
2022-12-25T09:08:04.824Z,88.30
2022-12-25T09:10:34.844Z,88.25
2022-12-25T09:13:01.511Z,87.85
2022-12-25T09:15:28.910Z,87.95
2022-12-25T09:17:55.606Z,87.84
2022-12-25T09:20:22.373Z,87.87
2022-12-25T09:22:49.190Z,87.68
2022-12-25T09:25:15.791Z,87.80
2022-12-25T09:27:42.404Z,87.62
2022-12-25T09:30:10.744Z,87.46
2022-12-25T09:32:37.436Z,87.76
2022-12-25T09:35:04.233Z,88.00
2022-12-25T09:37:31.160Z,88.70
2022-12-25T09:39:57.782Z,88.94
2022-12-25T09:42:28.143Z,88.37
2022-12-25T09:45:04.270Z,90.69
2022-12-25T09:47:34.116Z,91.45
2022-12-25T09:50:07.215Z,93.02
2022-12-25T09:53:00.700Z,93.44
2022-12-25T09:55:31.559Z,93.04
2022-12-25T09:58:01.355Z,92.90
2022-12-25T10:00:36.021Z,91.64
2022-12-25T10:03:17.784Z,92.32
2022-12-25T10:06:27.432Z,92.29
2022-12-25T10:09:15.030Z,92.32
2022-12-25T10:12:20.322Z,92.66
2022-12-25T10:15:32.049Z,91.61
2022-12-25T10:18:23.229Z,90.10
2022-12-25T10:20:56.046Z,89.67
2022-12-25T10:23:29.235Z,88.42
2022-12-25T10:25:55.988Z,88.03
2022-12-25T10:28:33.975Z,88.39
2022-12-25T10:31:13.663Z,89.14
2022-12-25T10:33:40.550Z,90.10
2022-12-25T10:36:09.041Z,90.77
2022-12-25T10:38:36.099Z,91.66
2022-12-25T10:41:02.719Z,92.27
2022-12-25T10:43:48.139Z,92.59
2022-12-25T10:46:16.102Z,92.34
2022-12-25T10:48:50.088Z,91.41
2022-12-25T10:51:46.211Z,90.63
2022-12-25T10:54:26.164Z,89.79
2022-12-25T10:57:03.709Z,88.63
2022-12-25T10:59:41.447Z,88.29
2022-12-25T11:02:24.307Z,88.31
2022-12-25T11:04:58.159Z,90.51
2022-12-25T11:07:26.570Z,90.73
2022-12-25T11:10:05.823Z,89.90
2022-12-25T11:12:41.882Z,89.94
2022-12-25T11:15:42.704Z,91.51
2022-12-25T11:18:26.620Z,89.92
2022-12-25T11:21:00.145Z,87.77
2022-12-25T11:23:30.251Z,85.85
2022-12-25T11:26:08.009Z,85.00
2022-12-25T11:28:38.568Z,84.15
2022-12-25T11:31:20.052Z,82.90
2022-12-25T11:33:57.267Z,81.67
2022-12-25T11:36:44.400Z,82.43
2022-12-25T11:39:34.380Z,81.66
2022-12-25T11:42:20.507Z,83.26
2022-12-25T11:45:01.283Z,82.91
2022-12-25T11:47:33.239Z,82.55
2022-12-25T11:50:02.839Z,82.52
2022-12-25T11:52:34.742Z,83.00
2022-12-25T11:55:10.319Z,82.39
2022-12-25T11:57:39.426Z,82.20
2022-12-25T12:00:08.346Z,82.78
2022-12-25T12:02:44.546Z,83.06
2022-12-25T12:05:18.000Z,83.99
2022-12-25T12:07:59.738Z,85.45
2022-12-25T12:10:38.229Z,84.96
2022-12-25T12:13:25.515Z,85.95
2022-12-25T12:15:52.498Z,85.58
2022-12-25T12:18:27.982Z,85.53
2022-12-25T12:21:17.746Z,84.82
2022-12-25T12:23:50.699Z,84.39
2022-12-25T12:26:20.446Z,84.03
2022-12-25T12:28:49.235Z,84.52
2022-12-25T12:31:16.801Z,84.91
2022-12-25T12:33:59.664Z,82.94
2022-12-25T12:36:36.201Z,82.11
2022-12-25T12:39:04.656Z,80.88
2022-12-25T12:41:45.717Z,80.13
2022-12-25T12:44:13.173Z,80.80
2022-12-25T12:46:51.085Z,81.00
2022-12-25T12:49:24.195Z,81.70
2022-12-25T12:52:02.606Z,82.54
2022-12-25T12:54:29.399Z,81.83
2022-12-25T12:57:01.805Z,81.25
2022-12-25T12:59:48.816Z,81.01
2022-12-25T13:02:27.513Z,80.41
2022-12-25T13:05:13.114Z,80.47
2022-12-25T13:08:17.381Z,80.26
2022-12-25T13:10:50.864Z,80.40
2022-12-25T13:13:27.101Z,80.80
2022-12-25T13:15:53.876Z,80.77
2022-12-25T13:18:20.722Z,80.67
2022-12-25T13:20:57.111Z,80.49
2022-12-25T13:23:28.022Z,80.48
2022-12-25T13:26:03.816Z,80.30
2022-12-25T13:28:31.580Z,80.33
2022-12-25T13:31:12.646Z,80.42
2022-12-25T13:33:44.758Z,81.47
2022-12-25T13:36:13.470Z,81.62
2022-12-25T13:38:49.207Z,81.11
2022-12-25T13:41:19.765Z,80.71
2022-12-25T13:43:48.706Z,81.14
2022-12-25T13:46:15.920Z,81.64
2022-12-25T13:48:43.104Z,81.11
2022-12-25T13:51:15.359Z,81.38
2022-12-25T13:53:43.878Z,82.58
2022-12-25T13:56:14.966Z,82.62
2022-12-25T13:58:42.791Z,82.43
2022-12-25T14:01:09.989Z,81.85
2022-12-25T14:03:45.573Z,82.79
2022-12-25T14:06:21.271Z,83.85
2022-12-25T14:08:48.781Z,84.32
2022-12-25T14:11:19.779Z,84.73
2022-12-25T14:13:48.792Z,83.45
2022-12-25T14:16:17.998Z,82.67
2022-12-25T14:18:56.557Z,81.86
2022-12-25T14:21:37.557Z,81.69
2022-12-25T14:24:13.536Z,83.18
2022-12-25T14:26:40.574Z,82.56
2022-12-25T14:29:07.097Z,83.61
2022-12-25T14:31:35.408Z,83.81
2022-12-25T14:34:05.011Z,82.80
2022-12-25T14:36:33.860Z,82.17
2022-12-25T14:39:03.192Z,82.23
2022-12-25T14:41:40.088Z,83.09
2022-12-25T14:44:37.181Z,84.71
2022-12-25T14:47:12.346Z,85.82
2022-12-25T14:49:39.099Z,86.71
2022-12-25T14:52:29.911Z,86.59
2022-12-25T14:55:06.728Z,86.79
2022-12-25T14:57:41.079Z,87.27
2022-12-25T15:00:18.944Z,86.80
2022-12-25T15:02:48.501Z,88.34
2022-12-25T15:05:36.826Z,89.86
2022-12-25T15:08:20.697Z,89.98
2022-12-25T15:11:04.050Z,90.18
2022-12-25T15:13:31.812Z,89.53
2022-12-25T15:16:01.851Z,88.67
2022-12-25T15:18:34.099Z,88.54
2022-12-25T15:21:00.853Z,90.08
2022-12-25T15:23:28.018Z,90.33
2022-12-25T15:25:54.754Z,89.83
2022-12-25T15:28:21.399Z,89.34
2022-12-25T15:30:48.339Z,87.96
2022-12-25T15:33:17.497Z,86.54
2022-12-25T15:35:44.975Z,85.88
2022-12-25T15:38:12.813Z,85.98
2022-12-25T15:40:40.090Z,87.34
2022-12-25T15:43:14.467Z,90.49
2022-12-25T15:45:54.038Z,90.56
2022-12-25T15:48:20.694Z,89.04
2022-12-25T15:50:47.334Z,89.33
2022-12-25T15:53:14.018Z,88.97
2022-12-25T15:55:41.021Z,90.69
2022-12-25T15:58:12.505Z,91.29
2022-12-25T16:00:39.462Z,90.32
2022-12-25T16:03:06.242Z,88.89
2022-12-25T16:05:33.190Z,88.11
2022-12-25T16:07:59.807Z,87.64
2022-12-25T16:10:26.482Z,86.10
2022-12-25T16:12:53.116Z,84.85
2022-12-25T16:15:20.144Z,83.43
2022-12-25T16:17:46.756Z,83.18
2022-12-25T16:20:13.756Z,82.40
2022-12-25T16:22:40.488Z,82.54
2022-12-25T16:25:16.743Z,81.78
2022-12-25T16:27:43.451Z,84.60
2022-12-25T16:30:12.896Z,84.26
2022-12-25T16:32:39.765Z,83.32
2022-12-25T16:35:06.662Z,82.68
2022-12-25T16:37:34.458Z,82.98
2022-12-25T16:40:01.668Z,82.64
2022-12-25T16:42:28.463Z,84.17
2022-12-25T16:44:55.073Z,84.24
2022-12-25T16:47:21.973Z,83.55
2022-12-25T16:49:48.660Z,85.24
2022-12-25T16:52:15.329Z,85.54
2022-12-25T16:54:41.937Z,84.98
2022-12-25T16:57:08.719Z,84.39
2022-12-25T16:59:35.332Z,84.28
2022-12-25T17:02:02.234Z,84.57
2022-12-25T17:04:29.274Z,82.98
2022-12-25T17:06:56.297Z,83.55
2022-12-25T17:09:22.899Z,83.88
2022-12-25T17:11:49.734Z,84.46
2022-12-25T17:14:16.360Z,84.42
2022-12-25T17:16:43.222Z,84.88
2022-12-25T17:19:18.919Z,84.88
2022-12-25T17:21:46.466Z,83.95
2022-12-25T17:24:13.477Z,83.73
2022-12-25T17:26:41.302Z,82.79
2022-12-25T17:29:08.847Z,82.34
2022-12-25T17:31:35.829Z,82.85
2022-12-25T17:34:03.520Z,81.81
2022-12-25T17:36:31.271Z,83.07
2022-12-25T17:39:05.563Z,82.67
2022-12-25T17:41:32.617Z,83.84
2022-12-25T17:43:59.445Z,84.61
2022-12-25T17:46:28.957Z,84.45
2022-12-25T17:48:57.233Z,84.37
2022-12-25T17:51:26.090Z,83.82
2022-12-25T17:53:55.351Z,83.76
2022-12-25T17:56:23.478Z,83.09
2022-12-25T17:58:56.097Z,82.93
2022-12-25T18:01:24.016Z,83.14
2022-12-25T18:03:51.182Z,83.86
2022-12-25T18:06:20.777Z,83.04
2022-12-25T18:08:47.970Z,82.40
2022-12-25T18:11:17.862Z,82.71
2022-12-25T18:13:47.270Z,82.90
2022-12-25T18:16:14.905Z,83.24
2022-12-25T18:18:45.220Z,84.09
2022-12-25T18:21:16.803Z,83.99
2022-12-25T18:23:43.520Z,84.14
2022-12-25T18:26:11.267Z,83.64
2022-12-25T18:28:38.932Z,82.74
2022-12-25T18:31:10.565Z,83.01
2022-12-25T18:33:37.344Z,83.04
2022-12-25T18:36:04.877Z,82.94
2022-12-25T18:38:31.637Z,83.31
2022-12-25T18:40:58.330Z,83.05
2022-12-25T18:43:54.238Z,82.79
2022-12-25T18:46:12.195Z,82.37
2022-12-25T18:48:39.316Z,82.95
2022-12-25T18:51:08.670Z,82.08
2022-12-25T18:53:35.921Z,81.41
2022-12-25T18:56:12.915Z,81.83
2022-12-25T18:58:39.608Z,82.17
2022-12-25T19:01:11.975Z,82.01
2022-12-25T19:03:38.863Z,82.56
2022-12-25T19:06:05.642Z,83.05
2022-12-25T19:08:32.372Z,83.33
2022-12-25T19:10:59.273Z,82.87
2022-12-25T19:13:27.141Z,83.02
2022-12-25T19:15:58.393Z,82.45
2022-12-25T19:18:25.293Z,81.53
2022-12-25T19:20:51.916Z,82.75
2022-12-25T19:23:18.671Z,82.32
2022-12-25T19:25:48.123Z,83.12
2022-12-25T19:28:15.077Z,83.44
2022-12-25T19:30:48.480Z,83.72
2022-12-25T19:33:17.982Z,82.69
2022-12-25T19:35:44.848Z,81.90
2022-12-25T19:38:11.653Z,81.64
2022-12-25T19:40:40.001Z,81.95
2022-12-25T19:43:07.450Z,81.74
2022-12-25T19:45:34.126Z,81.47
2022-12-25T19:48:00.787Z,81.98
2022-12-25T19:50:31.849Z,81.42
2022-12-25T19:52:59.101Z,82.09
2022-12-25T19:55:25.687Z,82.29
2022-12-25T19:57:52.472Z,83.06
2022-12-25T20:00:19.417Z,83.89
2022-12-25T20:02:47.579Z,83.97
2022-12-25T20:05:14.355Z,83.22
2022-12-25T20:07:41.079Z,84.47
2022-12-25T20:10:07.881Z,85.41
2022-12-25T20:12:34.586Z,86.01
2022-12-25T20:15:01.384Z,86.28
2022-12-25T20:17:30.505Z,86.22
2022-12-25T20:19:58.923Z,86.48
2022-12-25T20:22:25.755Z,86.22
2022-12-25T20:24:52.392Z,86.10
2022-12-25T20:27:19.203Z,86.36
2022-12-25T20:29:46.181Z,85.75
2022-12-25T20:32:13.174Z,84.16
2022-12-25T20:34:39.847Z,84.26
2022-12-25T20:37:06.645Z,84.63
2022-12-25T20:39:33.351Z,85.80
2022-12-25T20:42:00.095Z,85.92
2022-12-25T20:44:26.802Z,85.63
2022-12-25T20:46:53.421Z,85.13
2022-12-25T20:49:20.029Z,83.76
2022-12-25T20:51:46.809Z,83.13
2022-12-25T20:54:13.402Z,83.48
2022-12-25T20:56:40.152Z,83.19
2022-12-25T20:59:06.871Z,82.99
2022-12-25T21:01:33.751Z,83.55
2022-12-25T21:04:00.650Z,83.79
2022-12-25T21:06:27.561Z,84.46
2022-12-25T21:08:54.205Z,83.01
2022-12-25T21:11:21.520Z,82.83
2022-12-25T21:13:48.812Z,82.89
2022-12-25T21:16:21.017Z,82.75
2022-12-25T21:18:48.796Z,82.96
2022-12-25T21:21:16.215Z,83.25
2022-12-25T21:23:42.948Z,82.63
2022-12-25T21:26:13.946Z,83.58
2022-12-25T21:28:40.684Z,83.74
2022-12-25T21:31:08.127Z,83.53
2022-12-25T21:33:35.186Z,83.90
2022-12-25T21:36:11.386Z,84.91
2022-12-25T21:38:38.912Z,85.19
2022-12-25T21:41:07.632Z,85.59
2022-12-25T21:43:36.233Z,85.43
2022-12-25T21:46:08.928Z,85.93
2022-12-25T21:48:37.131Z,87.15
2022-12-25T21:51:05.014Z,86.70
2022-12-25T21:53:31.769Z,86.33
2022-12-25T21:56:01.849Z,87.02
2022-12-25T21:58:29.034Z,87.22
2022-12-25T22:00:55.693Z,86.91
2022-12-25T22:03:23.939Z,86.59
2022-12-25T22:05:50.714Z,85.90
2022-12-25T22:08:17.404Z,86.16
2022-12-25T22:10:44.098Z,85.37
2022-12-25T22:13:11.373Z,84.67
2022-12-25T22:15:38.245Z,84.55
2022-12-25T22:18:05.054Z,83.85
2022-12-25T22:20:37.357Z,85.66
2022-12-25T22:23:04.733Z,85.12
2022-12-25T22:25:31.586Z,85.15
2022-12-25T22:27:58.392Z,85.55
2022-12-25T22:30:27.523Z,86.98
2022-12-25T22:32:55.165Z,86.36
2022-12-25T22:35:22.860Z,86.66
2022-12-25T22:37:49.783Z,86.55
2022-12-25T22:40:18.462Z,85.56
2022-12-25T22:42:45.224Z,85.67
2022-12-25T22:45:13.421Z,86.71
2022-12-25T22:47:40.545Z,86.10
2022-12-25T22:50:07.926Z,85.37
2022-12-25T22:52:34.575Z,85.98
2022-12-25T22:55:01.210Z,85.78
2022-12-25T22:57:28.031Z,85.60
2022-12-25T22:59:54.751Z,85.37
2022-12-25T23:02:22.002Z,84.23
2022-12-25T23:04:48.983Z,83.96
2022-12-25T23:07:16.265Z,83.97
2022-12-25T23:09:44.286Z,84.80
2022-12-25T23:12:11.632Z,84.56
2022-12-25T23:14:38.198Z,84.45
2022-12-25T23:17:09.909Z,85.31
2022-12-25T23:19:36.838Z,85.92
2022-12-25T23:22:03.441Z,85.00
2022-12-25T23:24:30.690Z,84.67
2022-12-25T23:26:57.997Z,83.46
2022-12-25T23:29:24.938Z,82.84
2022-12-25T23:31:51.814Z,83.28
2022-12-25T23:34:18.889Z,83.33
2022-12-25T23:36:45.578Z,83.32
2022-12-25T23:39:12.705Z,83.93
2022-12-25T23:41:40.991Z,84.67
2022-12-25T23:44:09.029Z,85.36
2022-12-25T23:46:36.066Z,85.71
2022-12-25T23:49:03.830Z,86.40
2022-12-25T23:51:30.480Z,86.13
2022-12-25T23:53:57.201Z,86.88
2022-12-25T23:56:25.201Z,86.41
2022-12-25T23:58:51.956Z,86.17
